To NAV CANADA Home Page Login to a new session Search on AWWS site Disclaimer Vers la page française équivalente Tips FAQ What's new on the site To the Forecasts and Observations / NOTAM section To "File a Flight Plan" website Publications and other links Update of the User's profile FIC Telephone Numbers My Weather Data Folder Route Weather Data Regional Weather Data Local Weather Data To the Forecasts and Observations / NOTAM section
Request Generated 11/13/2018 at 19:05:58 UTC . Weather information available at that time is displayed.

METAR/TAF

CASTLEGAR/WEST KOOTENAY REGIONAL/BC    

METAR CYCG 131900Z 17004KT 15SM FEW005 FEW160 SCT250 M01/M02 A3057 RMK CF1AC1CI3 CF TR SLP377=
METAR CYCG 131800Z VRB02KT 15SM FEW002 FEW020 M02/M03 A3059 RMK CF1CF1 CF TR VIS S 3 LWR CLD S SLP385=
SPECI CYCG 131756Z VRB02KT 15SM BR FEW003 FEW020 M02/M03 A3059 RMK CF1CF1 CF TR VIS S-W 2 SLP386=
SPECI CYCG 131751Z VRB02KT 2SM BR SCT004 M03/M03 A3059 RMK FG2CF2 SLP386=
SPECI CYCG 131722Z 15003KT 1SM BR BKN003 M03/M04 A3060 RMK FG5CF1 VIS N 1/2 SLP387=
SPECI CYCG 131713Z 16003KT 1/2SM FZFG BKN003 M03/M04 A3060 RMK FG6CF1 SLP390=
METAR CYCG 131700Z 15003KT 3/8SM FZFG BKN002 M03/M04 A3060 RMK FG6CF1 CF TR FROIN SUN DIMLY VISBL SLP389=

TAF CYCG 131838Z 1319/1401 VRB03KT P6SM FEW002 FEW020
RMK NXT FCST WILL BE ISSUED AT 141545Z=
Your time UTC time
Weather data provided by Environment Canada and NAV CANADA